sensor_id;sensor_type;location;lat;lon;timestamp;pressure;altitude;pressure_sealevel;temperature;humidity
2036;BME280;23642;42.658;23.350;2023-09-18T00:00:25;46808.63;;;-146.31;100.00
2036;BME280;23642;42.658;23.350;2023-09-18T00:02:52;46893.09;;;-146.31;100.00
2036;BME280;23642;42.658;23.350;2023-09-18T00:05:19;46788.03;;;-146.31;100.00
2036;BME280;23642;42.658;23.350;2023-09-18T00:07:47;46870.44;;;-146.31;100.00
2036;BME280;23642;42.658;23.350;2023-09-18T00:10:17;46977.56;;;-146.31;100.00
2036;BME280;23642;42.658;23.350;2023-09-18T00:12:43;46956.97;;;-146.31;100.00
2036;BME280;23642;42.658;23.350;2023-09-18T00:15:12;47006.41;;;-146.31;100.00
2036;BME280;23642;42.658;23.350;2023-09-18T00:17:39;47101.19;;;-146.31;100.00
2036;BME280;23642;42.658;23.350;2023-09-18T00:20:06;47014.66;;;-146.31;100.00
2036;BME280;23642;42.658;23.350;2023-09-18T00:22:34;46952.84;;;-146.31;100.00
2036;BME280;23642;42.658;23.350;2023-09-18T00:25:07;46870.44;;;-146.31;100.00
2036;BME280;23642;42.658;23.350;2023-09-18T00:27:34;46853.97;;;-146.31;100.00
2036;BME280;23642;42.658;23.350;2023-09-18T00:30:01;46821.00;;;-146.31;100.00
2036;BME280;23642;42.658;23.350;2023-09-18T00:32:32;46847.78;;;-146.31;100.00
2036;BME280;23642;42.658;23.350;2023-09-18T00:34:59;46940.50;;;-146.31;100.00
2036;BME280;23642;42.658;23.350;2023-09-18T00:37:26;47035.25;;;-146.31;100.00
2036;BME280;23642;42.658;23.350;2023-09-18T00:39:54;47000.25;;;-146.31;100.00
2036;BME280;23642;42.658;23.350;2023-09-18T00:42:22;46930.19;;;-146.31;100.00
2036;BME280;23642;42.658;23.350;2023-09-18T00:44:49;47095.00;;;-146.31;100.00
2036;BME280;23642;42.658;23.350;2023-09-18T00:47:16;47204.22;;;-146.31;100.00
2036;BME280;23642;42.658;23.350;2023-09-18T00:49:47;47185.66;;;-146.31;100.00
2036;BME280;23642;42.658;23.350;2023-09-18T00:52:16;47249.53;;;-146.31;100.00
2036;BME280;23642;42.658;23.350;2023-09-18T00:54:44;47270.16;;;-146.31;100.00
2036;BME280;23642;42.658;23.350;2023-09-18T00:57:11;47346.38;;;-146.31;100.00
2036;BME280;23642;42.658;23.350;2023-09-18T00:59:41;47406.13;;;-146.31;100.00
2036;BME280;23642;42.658;23.350;2023-09-18T01:02:08;47325.78;;;-146.31;100.00
2036;BME280;23642;42.658;23.350;2023-09-18T01:04:35;47369.06;;;-146.31;100.00
2036;BME280;23642;42.658;23.350;2023-09-18T01:07:05;47428.81;;;-146.31;100.00
2036;BME280;23642;42.658;23.350;2023-09-18T01:09:33;47490.63;;;-146.31;100.00
2036;BME280;23642;42.658;23.350;2023-09-18T01:12:04;47533.91;;;-146.31;100.00
2036;BME280;23642;42.658;23.350;2023-09-18T01:14:37;47603.97;;;-146.31;100.00
2036;BME280;23642;42.658;23.350;2023-09-18T01:17:09;47552.44;;;-146.31;100.00
2036;BME280;23642;42.658;23.350;2023-09-18T01:19:37;47517.41;;;-146.31;100.00
2036;BME280;23642;42.658;23.350;2023-09-18T01:22:07;47608.06;;;-146.31;100.00
2036;BME280;23642;42.658;23.350;2023-09-18T01:24:37;47636.94;;;-146.31;100.00
2036;BME280;23642;42.658;23.350;2023-09-18T01:27:07;47612.19;;;-146.31;100.00
2036;BME280;23642;42.658;23.350;2023-09-18T01:29:34;47560.69;;;-146.31;100.00
2036;BME280;23642;42.658;23.350;2023-09-18T01:32:01;47653.41;;;-146.31;100.00
2036;BME280;23642;42.658;23.350;2023-09-18T01:34:32;47599.84;;;-146.31;100.00
2036;BME280;23642;42.658;23.350;2023-09-18T01:37:02;47581.28;;;-146.31;100.00
2036;BME280;23642;42.658;23.350;2023-09-18T01:39:31;47599.84;;;-146.31;100.00
2036;BME280;23642;42.658;23.350;2023-09-18T01:42:02;47669.91;;;-146.31;100.00
2036;BME280;23642;42.658;23.350;2023-09-18T01:44:31;47715.22;;;-146.31;100.00
2036;BME280;23642;42.658;23.350;2023-09-18T01:46:59;47719.34;;;-146.31;100.00
2036;BME280;23642;42.658;23.350;2023-09-18T01:49:29;47772.94;;;-146.31;100.00
2036;BME280;23642;42.658;23.350;2023-09-18T01:51:56;47822.38;;;-146.31;100.00
2036;BME280;23642;42.658;23.350;2023-09-18T01:54:23;47764.69;;;-146.31;100.00
2036;BME280;23642;42.658;23.350;2023-09-18T01:56:50;47830.63;;;-146.31;100.00
2036;BME280;23642;42.658;23.350;2023-09-18T01:59:18;47816.22;;;-146.31;100.00
2036;BME280;23642;42.658;23.350;2023-09-18T02:01:46;47725.53;;;-146.31;100.00
2036;BME280;23642;42.658;23.350;2023-09-18T02:04:13;47684.31;;;-146.31;100.00
2036;BME280;23642;42.658;23.350;2023-09-18T02:06:40;47688.44;;;-146.31;100.00
2036;BME280;23642;42.658;23.350;2023-09-18T02:09:07;47700.81;;;-146.31;100.00
2036;BME280;23642;42.658;23.350;2023-09-18T02:11:36;47750.25;;;-146.31;100.00
2036;BME280;23642;42.658;23.350;2023-09-18T02:14:04;47758.50;;;-146.31;100.00
2036;BME280;23642;42.658;23.350;2023-09-18T02:16:33;47737.91;;;-146.31;100.00
2036;BME280;23642;42.658;23.350;2023-09-18T02:19:01;47729.66;;;-146.31;100.00
2036;BME280;23642;42.658;23.350;2023-09-18T02:21:28;47725.53;;;-146.31;100.00
2036;BME280;23642;42.658;23.350;2023-09-18T02:23:55;47760.56;;;-146.31;100.00
2036;BME280;23642;42.658;23.350;2023-09-18T02:26:24;47729.66;;;-146.31;100.00
2036;BME280;23642;42.658;23.350;2023-09-18T02:28:51;47789.41;;;-146.31;100.00
2036;BME280;23642;42.658;23.350;2023-09-18T02:31:19;47781.19;;;-146.31;100.00
2036;BME280;23642;42.658;23.350;2023-09-18T02:33:47;47822.38;;;-146.31;100.00
2036;BME280;23642;42.658;23.350;2023-09-18T02:36:16;47797.66;;;-146.31;100.00
2036;BME280;23642;42.658;23.350;2023-09-18T02:38:43;47797.66;;;-146.31;100.00
2036;BME280;23642;42.658;23.350;2023-09-18T02:41:10;47845.06;;;-146.31;100.00
2036;BME280;23642;42.658;23.350;2023-09-18T02:43:37;47793.53;;;-146.31;100.00
2036;BME280;23642;42.658;23.350;2023-09-18T02:46:04;47807.97;;;-146.31;100.00
2036;BME280;23642;42.658;23.350;2023-09-18T02:48:32;47818.28;;;-146.31;100.00
2036;BME280;23642;42.658;23.350;2023-09-18T02:51:01;47855.38;;;-146.31;100.00
2036;BME280;23642;42.658;23.350;2023-09-18T02:53:28;47832.69;;;-146.31;100.00
2036;BME280;23642;42.658;23.350;2023-09-18T02:55:56;47861.53;;;-146.31;100.00
2036;BME280;23642;42.658;23.350;2023-09-18T02:58:24;47830.63;;;-146.31;100.00
2036;BME280;23642;42.658;23.350;2023-09-18T03:00:52;47824.44;;;-146.31;100.00
2036;BME280;23642;42.658;23.350;2023-09-18T03:03:19;47779.13;;;-146.31;100.00
2036;BME280;23642;42.658;23.350;2023-09-18T03:05:46;47760.56;;;-146.31;100.00
2036;BME280;23642;42.658;23.350;2023-09-18T03:08:15;47651.34;;;-146.31;100.00
2036;BME280;23642;42.658;23.350;2023-09-18T03:10:43;47649.28;;;-146.31;100.00
2036;BME280;23642;42.658;23.350;2023-09-18T03:13:11;47538.00;;;-146.31;100.00
2036;BME280;23642;42.658;23.350;2023-09-18T03:15:38;47562.75;;;-146.31;100.00
2036;BME280;23642;42.658;23.350;2023-09-18T03:18:06;47517.41;;;-146.31;100.00
2036;BME280;23642;42.658;23.350;2023-09-18T03:20:33;47387.59;;;-146.31;100.00
2036;BME280;23642;42.658;23.350;2023-09-18T03:23:02;47369.06;;;-146.31;100.00
2036;BME280;23642;42.658;23.350;2023-09-18T03:25:30;47290.75;;;-146.31;100.00
2036;BME280;23642;42.658;23.350;2023-09-18T03:27:57;47231.00;;;-146.31;100.00
2036;BME280;23642;42.658;23.350;2023-09-18T03:30:25;47053.81;;;-146.31;100.00
2036;BME280;23642;42.658;23.350;2023-09-18T03:32:52;46866.31;;;-146.31;100.00
2036;BME280;23642;42.658;23.350;2023-09-18T03:35:20;46903.41;;;-146.31;100.00
2036;BME280;23642;42.658;23.350;2023-09-18T03:37:47;46862.19;;;-146.31;100.00
2036;BME280;23642;42.658;23.350;2023-09-18T03:40:15;47031.13;;;-146.31;100.00
2036;BME280;23642;42.658;23.350;2023-09-18T03:42:44;46956.97;;;-146.31;100.00
2036;BME280;23642;42.658;23.350;2023-09-18T03:45:11;47086.78;;;-146.31;100.00
2036;BME280;23642;42.658;23.350;2023-09-18T03:47:39;47103.25;;;-146.31;100.00
2036;BME280;23642;42.658;23.350;2023-09-18T03:50:08;47088.81;;;-146.31;100.00
2036;BME280;23642;42.658;23.350;2023-09-18T03:52:35;47121.78;;;-146.31;100.00
2036;BME280;23642;42.658;23.350;2023-09-18T03:55:02;47074.41;;;-146.31;100.00
2036;BME280;23642;42.658;23.350;2023-09-18T03:57:29;47068.22;;;-146.31;100.00
2036;BME280;23642;42.658;23.350;2023-09-18T03:59:58;46989.94;;;-146.31;100.00
2036;BME280;23642;42.658;23.350;2023-09-18T04:02:26;46985.81;;;-146.31;100.00
2036;BME280;23642;42.658;23.350;2023-09-18T04:04:53;46821.00;;;-146.31;100.00
2036;BME280;23642;42.658;23.350;2023-09-18T04:07:20;46732.41;;;-146.31;100.00
2036;BME280;23642;42.658;23.350;2023-09-18T04:09:47;46740.66;;;-146.31;100.00
2036;BME280;23642;42.658;23.350;2023-09-18T04:12:14;46631.47;;;-146.31;100.00
2036;BME280;23642;42.658;23.350;2023-09-18T04:14:41;46641.75;;;-146.31;100.00
2036;BME280;23642;42.658;23.350;2023-09-18T04:17:09;46676.78;;;-146.31;100.00
2036;BME280;23642;42.658;23.350;2023-09-18T04:19:36;46746.84;;;-146.31;100.00
2036;BME280;23642;42.658;23.350;2023-09-18T04:22:03;46718.00;;;-146.31;100.00
2036;BME280;23642;42.658;23.350;2023-09-18T04:24:30;46724.16;;;-146.31;100.00
2036;BME280;23642;42.658;23.350;2023-09-18T04:26:57;46767.44;;;-146.31;100.00
2036;BME280;23642;42.658;23.350;2023-09-18T04:29:24;46750.94;;;-146.31;100.00
2036;BME280;23642;42.658;23.350;2023-09-18T04:31:51;46676.78;;;-146.31;100.00
2036;BME280;23642;42.658;23.350;2023-09-18T04:34:21;46825.13;;;-146.31;100.00
2036;BME280;23642;42.658;23.350;2023-09-18T04:36:51;46913.72;;;-146.31;100.00
2036;BME280;23642;42.658;23.350;2023-09-18T04:39:18;46891.03;;;-146.31;100.00
2036;BME280;23642;42.658;23.350;2023-09-18T04:41:45;46781.84;;;-146.31;100.00
2036;BME280;23642;42.658;23.350;2023-09-18T04:44:12;46886.91;;;-146.31;100.00
2036;BME280;23642;42.658;23.350;2023-09-18T04:46:40;46940.50;;;-146.31;100.00
2036;BME280;23642;42.658;23.350;2023-09-18T04:49:08;46950.78;;;-146.31;100.00
2036;BME280;23642;42.658;23.350;2023-09-18T04:51:38;47029.09;;;-146.31;100.00
2036;BME280;23642;42.658;23.350;2023-09-18T04:54:07;47204.22;;;-146.31;100.00
2036;BME280;23642;42.658;23.350;2023-09-18T04:56:34;47309.28;;;-146.31;100.00
2036;BME280;23642;42.658;23.350;2023-09-18T04:59:01;47350.50;;;-146.31;100.00
2036;BME280;23642;42.658;23.350;2023-09-18T05:01:33;47445.28;;;-146.31;100.00
2036;BME280;23642;42.658;23.350;2023-09-18T05:04:00;47535.94;;;-146.31;100.00
2036;BME280;23642;42.658;23.350;2023-09-18T05:06:30;47624.56;;;-146.31;100.00
2036;BME280;23642;42.658;23.350;2023-09-18T05:09:00;47632.81;;;-146.31;100.00
2036;BME280;23642;42.658;23.350;2023-09-18T05:11:28;47649.28;;;-146.31;100.00
2036;BME280;23642;42.658;23.350;2023-09-18T05:13:58;47752.31;;;-146.31;100.00
2036;BME280;23642;42.658;23.350;2023-09-18T05:16:24;47851.25;;;-146.31;100.00
2036;BME280;23642;42.658;23.350;2023-09-18T05:18:51;47902.75;;;-146.31;100.00
2036;BME280;23642;42.658;23.350;2023-09-18T05:21:18;47962.53;;;-146.31;100.00
2036;BME280;23642;42.658;23.350;2023-09-18T05:23:50;48005.81;;;-146.31;100.00
2036;BME280;23642;42.658;23.350;2023-09-18T05:26:18;48057.34;;;-146.31;100.00
2036;BME280;23642;42.658;23.350;2023-09-18T05:28:45;48036.72;;;-146.31;100.00
2036;BME280;23642;42.658;23.350;2023-09-18T05:31:12;48088.25;;;-146.31;100.00
2036;BME280;23642;42.658;23.350;2023-09-18T05:33:43;48080.00;;;-146.31;100.00
2036;BME280;23642;42.658;23.350;2023-09-18T05:36:10;48255.19;;;-146.31;99.53
2036;BME280;23642;42.658;23.350;2023-09-18T05:38:36;48238.69;;;-146.31;99.56
2036;BME280;23642;42.658;23.350;2023-09-18T05:41:03;48279.91;;;-146.31;99.15
2036;BME280;23642;42.658;23.350;2023-09-18T05:43:32;48302.59;;;-146.31;99.38
2036;BME280;23642;42.658;23.350;2023-09-18T05:46:03;48296.41;;;-146.31;99.13
2036;BME280;23642;42.658;23.350;2023-09-18T05:48:30;48323.19;;;-146.31;98.11
2036;BME280;23642;42.658;23.350;2023-09-18T05:50:59;48411.84;;;-146.31;97.22
2036;BME280;23642;42.658;23.350;2023-09-18T05:53:26;48366.47;;;-146.31;97.46
2036;BME280;23642;42.658;23.350;2023-09-18T05:55:53;48455.13;;;-146.31;97.42
2036;BME280;23642;42.658;23.350;2023-09-18T05:58:31;48496.34;;;-146.31;96.05
2036;BME280;23642;42.658;23.350;2023-09-18T06:01:02;48556.13;;;-146.31;95.44
2036;BME280;23642;42.658;23.350;2023-09-18T06:03:29;48556.13;;;-146.31;96.28
2036;BME280;23642;42.658;23.350;2023-09-18T06:06:03;48601.47;;;-146.31;95.62
2036;BME280;23642;42.658;23.350;2023-09-18T06:08:30;48595.28;;;-146.31;95.53
2036;BME280;23642;42.658;23.350;2023-09-18T06:10:58;48671.53;;;-146.31;95.21
2036;BME280;23642;42.658;23.350;2023-09-18T06:13:25;48615.88;;;-146.31;96.18
2036;BME280;23642;42.658;23.350;2023-09-18T06:15:55;48626.19;;;-146.31;95.84
2036;BME280;23642;42.658;23.350;2023-09-18T06:18:24;48745.75;;;-146.31;94.05
2036;BME280;23642;42.658;23.350;2023-09-18T06:20:51;48741.63;;;-146.31;94.78
2036;BME280;23642;42.658;23.350;2023-09-18T06:23:18;48745.75;;;-146.31;93.95
2036;BME280;23642;42.658;23.350;2023-09-18T06:25:45;48795.22;;;-146.31;93.45
2036;BME280;23642;42.658;23.350;2023-09-18T06:28:12;48778.75;;;-146.31;94.01
2036;BME280;23642;42.658;23.350;2023-09-18T06:30:39;48786.97;;;-146.31;92.68
2036;BME280;23642;42.658;23.350;2023-09-18T06:33:08;48797.28;;;-146.31;92.22
2036;BME280;23642;42.658;23.350;2023-09-18T06:35:38;48836.47;;;-146.31;92.24
2036;BME280;23642;42.658;23.350;2023-09-18T06:38:07;48910.66;;;-146.31;90.51
2036;BME280;23642;42.658;23.350;2023-09-18T06:40:37;48962.19;;;-146.31;90.42
2036;BME280;23642;42.658;23.350;2023-09-18T06:43:04;49017.88;;;-146.31;90.07
2036;BME280;23642;42.658;23.350;2023-09-18T06:45:33;48964.25;;;-146.31;90.34
2036;BME280;23642;42.658;23.350;2023-09-18T06:48:04;48991.06;;;-146.31;89.19
2036;BME280;23642;42.658;23.350;2023-09-18T06:50:31;49054.97;;;-146.31;88.83
2036;BME280;23642;42.658;23.350;2023-09-18T06:53:03;49180.72;;;-146.31;86.86
2036;BME280;23642;42.658;23.350;2023-09-18T06:55:30;49188.97;;;-146.31;86.92
2036;BME280;23642;42.658;23.350;2023-09-18T06:57:59;49228.16;;;-146.31;86.49
2036;BME280;23642;42.658;23.350;2023-09-18T07:00:29;49265.25;;;-146.31;85.91
2036;BME280;23642;42.658;23.350;2023-09-18T07:02:59;49386.91;;;-146.31;87.06
2036;BME280;23642;42.658;23.350;2023-09-18T07:05:33;49364.22;;;-146.31;87.35
2036;BME280;23642;42.658;23.350;2023-09-18T07:08:17;49409.56;;;-146.31;87.26
2036;BME280;23642;42.658;23.350;2023-09-18T07:11:13;49393.09;;;-146.31;86.45
2036;BME280;23642;42.658;23.350;2023-09-18T07:16:55;49399.28;;;-146.31;84.47
2036;BME280;23642;42.658;23.350;2023-09-18T07:19:37;49537.41;;;-146.31;83.97
2036;BME280;23642;42.658;23.350;2023-09-18T07:22:23;49619.88;;;-146.31;85.68
2036;BME280;23642;42.658;23.350;2023-09-18T07:24:52;49533.28;;;-146.31;84.67
2036;BME280;23642;42.658;23.350;2023-09-18T07:27:19;49520.91;;;-146.31;83.50
2036;BME280;23642;42.658;23.350;2023-09-18T07:30:10;49512.66;;;-146.31;81.90
2036;BME280;23642;42.658;23.350;2023-09-18T07:32:49;49646.69;;;-146.31;81.20
2036;BME280;23642;42.658;23.350;2023-09-18T07:35:26;49692.06;;;-146.31;82.13
2036;BME280;23642;42.658;23.350;2023-09-18T07:37:58;49710.59;;;-146.31;83.26
2036;BME280;23642;42.658;23.350;2023-09-18T07:40:28;49727.09;;;-146.31;83.77
2036;BME280;23642;42.658;23.350;2023-09-18T07:43:38;49778.66;;;-146.31;82.90
2036;BME280;23642;42.658;23.350;2023-09-18T07:46:03;49706.47;;;-146.31;82.89
2036;BME280;23642;42.658;23.350;2023-09-18T07:48:31;49704.41;;;-146.31;81.82
2036;BME280;23642;42.658;23.350;2023-09-18T07:51:04;49780.72;;;-146.31;81.01
2036;BME280;23642;42.658;23.350;2023-09-18T07:53:50;49807.53;;;-146.31;80.80
2036;BME280;23642;42.658;23.350;2023-09-18T07:56:41;49877.63;;;-146.31;81.55
2036;BME280;23642;42.658;23.350;2023-09-18T07:59:29;49867.31;;;-146.31;80.67
2036;BME280;23642;42.658;23.350;2023-09-18T08:02:12;49875.56;;;-146.31;81.59
2036;BME280;23642;42.658;23.350;2023-09-18T08:04:41;49883.81;;;-146.31;81.39
2036;BME280;23642;42.658;23.350;2023-09-18T08:07:08;49916.81;;;-146.31;81.78
2036;BME280;23642;42.658;23.350;2023-09-18T08:09:38;49871.44;;;-146.31;81.87
2036;BME280;23642;42.658;23.350;2023-09-18T08:12:24;49877.63;;;-146.31;81.22
2036;BME280;23642;42.658;23.350;2023-09-18T08:15:04;49912.69;;;-146.31;80.97
2036;BME280;23642;42.658;23.350;2023-09-18T08:17:35;49951.88;;;-146.31;79.80
2036;BME280;23642;42.658;23.350;2023-09-18T08:20:08;50017.84;;;-146.31;77.99
2036;BME280;23642;42.658;23.350;2023-09-18T08:22:44;50032.28;;;-146.31;78.91
2036;BME280;23642;42.658;23.350;2023-09-18T08:25:15;49993.09;;;-146.31;79.69
2036;BME280;23642;42.658;23.350;2023-09-18T08:27:46;49978.66;;;-146.31;79.09
2036;BME280;23642;42.658;23.350;2023-09-18T08:30:26;50026.09;;;-146.31;76.93
2036;BME280;23642;42.658;23.350;2023-09-18T08:32:54;49982.78;;;-146.31;77.98
2036;BME280;23642;42.658;23.350;2023-09-18T08:35:22;50098.28;;;-146.31;76.65
2036;BME280;23642;42.658;23.350;2023-09-18T08:37:55;50059.09;;;-146.31;76.27
2036;BME280;23642;42.658;23.350;2023-09-18T08:40:22;50197.25;;;-146.31;75.93
2036;BME280;23642;42.658;23.350;2023-09-18T08:42:55;50211.69;;;-146.31;76.53
2036;BME280;23642;42.658;23.350;2023-09-18T08:45:44;50197.25;;;-146.31;75.72
2036;BME280;23642;42.658;23.350;2023-09-18T08:48:13;50244.69;;;-146.31;75.65
2036;BME280;23642;42.658;23.350;2023-09-18T08:50:43;50191.06;;;-146.31;75.66
2036;BME280;23642;42.658;23.350;2023-09-18T08:53:14;50211.69;;;-146.31;75.38
2036;BME280;23642;42.658;23.350;2023-09-18T08:55:41;50184.88;;;-146.31;75.47
2036;BME280;23642;42.658;23.350;2023-09-18T08:58:09;50186.94;;;-146.31;75.11
2036;BME280;23642;42.658;23.350;2023-09-18T09:00:37;50277.69;;;-146.31;73.08
2036;BME280;23642;42.658;23.350;2023-09-18T09:03:06;50259.13;;;-146.31;74.22
2036;BME280;23642;42.658;23.350;2023-09-18T09:05:33;50304.50;;;-146.31;71.65
2036;BME280;23642;42.658;23.350;2023-09-18T09:08:00;50354.00;;;-146.31;70.80
2036;BME280;23642;42.658;23.350;2023-09-18T09:10:30;50374.63;;;-146.31;71.05
2036;BME280;23642;42.658;23.350;2023-09-18T09:12:58;50430.31;;;-146.31;70.00
2036;BME280;23642;42.658;23.350;2023-09-18T09:15:44;50490.13;;;-146.31;69.10
2036;BME280;23642;42.658;23.350;2023-09-18T09:18:13;50529.31;;;-146.31;68.94
2036;BME280;23642;42.658;23.350;2023-09-18T09:20:58;50564.38;;;-146.31;71.39
2036;BME280;23642;42.658;23.350;2023-09-18T09:23:27;50593.25;;;-146.31;68.60
2036;BME280;23642;42.658;23.350;2023-09-18T09:26:12;50754.13;;;-146.31;70.55
2036;BME280;23642;42.658;23.350;2023-09-18T09:28:43;50688.13;;;-146.31;70.25
2036;BME280;23642;42.658;23.350;2023-09-18T09:31:28;50669.56;;;-146.31;69.21
2036;BME280;23642;42.658;23.350;2023-09-18T09:33:58;50714.94;;;-146.31;69.64
2036;BME280;23642;42.658;23.350;2023-09-18T09:36:27;50700.50;;;-146.31;68.87
2036;BME280;23642;42.658;23.350;2023-09-18T09:38:56;50708.75;;;-146.31;70.29
2036;BME280;23642;42.658;23.350;2023-09-18T09:41:23;50717.00;;;-146.31;68.38
2036;BME280;23642;42.658;23.350;2023-09-18T09:43:53;50721.13;;;-146.31;68.43
2036;BME280;23642;42.658;23.350;2023-09-18T09:46:30;50838.69;;;-146.31;68.77
2036;BME280;23642;42.658;23.350;2023-09-18T09:49:03;50813.94;;;-146.31;69.43
2036;BME280;23642;42.658;23.350;2023-09-18T09:51:31;50828.38;;;-146.31;67.46
2036;BME280;23642;42.658;23.350;2023-09-18T09:54:05;50714.94;;;-146.31;67.70
2036;BME280;23642;42.658;23.350;2023-09-18T09:56:40;50807.75;;;-146.31;62.49
2036;BME280;23642;42.658;23.350;2023-09-18T10:02:35;50884.06;;;-146.31;57.89
2036;BME280;23642;42.658;23.350;2023-09-18T10:05:08;50877.88;;;-146.31;56.70
2036;BME280;23642;42.658;23.350;2023-09-18T10:07:52;50921.19;;;-146.31;54.74
2036;BME280;23642;42.658;23.350;2023-09-18T10:10:22;51057.31;;;-146.31;54.73
2036;BME280;23642;42.658;23.350;2023-09-18T10:13:12;51022.25;;;-146.31;54.98
2036;BME280;23642;42.658;23.350;2023-09-18T10:15:43;51014.00;;;-146.31;54.63
2036;BME280;23642;42.658;23.350;2023-09-18T10:18:26;51032.56;;;-146.31;53.83
2036;BME280;23642;42.658;23.350;2023-09-18T10:21:03;51212.03;;;-146.31;53.97
2036;BME280;23642;42.658;23.350;2023-09-18T10:23:42;51170.78;;;-146.31;54.43
2036;BME280;23642;42.658;23.350;2023-09-18T10:26:14;51096.53;;;-146.31;53.97
2036;BME280;23642;42.658;23.350;2023-09-18T10:28:49;51104.78;;;-146.31;53.48
2036;BME280;23642;42.658;23.350;2023-09-18T10:31:23;51203.78;;;-146.31;52.61
2036;BME280;23642;42.658;23.350;2023-09-18T10:33:57;51327.56;;;-146.31;51.82
2036;BME280;23642;42.658;23.350;2023-09-18T10:36:26;51368.81;;;-146.31;51.24
2036;BME280;23642;42.658;23.350;2023-09-18T10:38:55;51372.94;;;-146.31;50.74
2036;BME280;23642;42.658;23.350;2023-09-18T10:41:26;51331.69;;;-146.31;50.70
2036;BME280;23642;42.658;23.350;2023-09-18T10:44:11;51327.56;;;-146.31;51.06
2036;BME280;23642;42.658;23.350;2023-09-18T10:46:43;51311.06;;;-146.31;50.66
2036;BME280;23642;42.658;23.350;2023-09-18T10:49:24;51278.06;;;-146.31;50.98
2036;BME280;23642;42.658;23.350;2023-09-18T10:51:59;51294.56;;;-146.31;50.58
2036;BME280;23642;42.658;23.350;2023-09-18T10:54:27;51294.56;;;-146.31;50.25
2036;BME280;23642;42.658;23.350;2023-09-18T10:57:15;51366.75;;;-146.31;49.48
2036;BME280;23642;42.658;23.350;2023-09-18T10:59:44;51523.53;;;-146.31;50.25
2036;BME280;23642;42.658;23.350;2023-09-18T11:02:14;51589.56;;;-146.31;49.82
2036;BME280;23642;42.658;23.350;2023-09-18T11:04:44;51686.53;;;-146.31;49.82
2036;BME280;23642;42.658;23.350;2023-09-18T11:07:31;51822.69;;;-146.31;49.62
2036;BME280;23642;42.658;23.350;2023-09-18T11:10:25;51843.34;;;-146.31;49.88
2036;BME280;23642;42.658;23.350;2023-09-18T11:13:08;51847.47;;;-146.31;50.43
2036;BME280;23642;42.658;23.350;2023-09-18T11:15:45;51806.19;;;-146.31;49.98
2036;BME280;23642;42.658;23.350;2023-09-18T11:18:36;51777.31;;;-146.31;50.06
2036;BME280;23642;42.658;23.350;2023-09-18T11:21:10;51806.19;;;-146.31;49.31
2036;BME280;23642;42.658;23.350;2023-09-18T11:23:40;52026.97;;;-146.31;49.14
2036;BME280;23642;42.658;23.350;2023-09-18T11:26:10;51934.13;;;-146.31;49.49
2036;BME280;23642;42.658;23.350;2023-09-18T11:28:39;51888.72;;;-146.31;49.39
2036;BME280;23642;42.658;23.350;2023-09-18T11:31:08;51905.22;;;-146.31;48.19
2036;BME280;23642;42.658;23.350;2023-09-18T11:33:38;52010.47;;;-146.31;48.51
2036;BME280;23642;42.658;23.350;2023-09-18T11:36:11;52018.72;;;-146.31;47.94
2036;BME280;23642;42.658;23.350;2023-09-18T11:38:52;52119.81;;;-146.31;48.76
2036;BME280;23642;42.658;23.350;2023-09-18T11:41:23;52097.13;;;-146.31;49.10
2036;BME280;23642;42.658;23.350;2023-09-18T11:47:13;52117.75;;;-146.31;47.61
2036;BME280;23642;42.658;23.350;2023-09-18T11:49:54;52189.97;;;-146.31;47.40
2036;BME280;23642;42.658;23.350;2023-09-18T11:52:39;52175.53;;;-146.31;48.03
2036;BME280;23642;42.658;23.350;2023-09-18T11:55:08;52128.06;;;-146.31;46.90
2036;BME280;23642;42.658;23.350;2023-09-18T11:57:37;52156.97;;;-146.31;46.74
2036;BME280;23642;42.658;23.350;2023-09-18T12:00:32;51979.50;;;-146.31;45.43
2036;BME280;23642;42.658;23.350;2023-09-18T12:03:24;52039.34;;;-146.31;44.43
2036;BME280;23642;42.658;23.350;2023-09-18T12:06:08;52059.97;;;-146.31;43.64
2036;BME280;23642;42.658;23.350;2023-09-18T12:08:53;52204.41;;;-146.31;43.96
2036;BME280;23642;42.658;23.350;2023-09-18T12:11:36;52134.25;;;-146.31;44.19
2036;BME280;23642;42.658;23.350;2023-09-18T12:14:04;52284.91;;;-146.31;43.69
2036;BME280;23642;42.658;23.350;2023-09-18T12:16:37;52274.59;;;-146.31;43.72
2036;BME280;23642;42.658;23.350;2023-09-18T12:19:07;52049.66;;;-146.31;43.74
2036;BME280;23642;42.658;23.350;2023-09-18T12:21:40;52410.78;;;-146.31;45.14
2036;BME280;23642;42.658;23.350;2023-09-18T12:24:20;52701.75;;;-146.31;47.76
2036;BME280;23642;42.658;23.350;2023-09-18T12:26:47;52745.09;;;-146.31;48.42
2036;BME280;23642;42.658;23.350;2023-09-18T12:29:14;52662.53;;;-146.31;48.50
2036;BME280;23642;42.658;23.350;2023-09-18T12:31:42;52712.06;;;-146.31;48.08
2036;BME280;23642;42.658;23.350;2023-09-18T12:34:16;52685.25;;;-146.31;49.24
2036;BME280;23642;42.658;23.350;2023-09-18T12:36:56;52670.78;;;-146.31;49.16
2036;BME280;23642;42.658;23.350;2023-09-18T12:39:31;52718.25;;;-146.31;49.34
2036;BME280;23642;42.658;23.350;2023-09-18T12:41:58;52858.59;;;-146.31;49.54
2036;BME280;23642;42.658;23.350;2023-09-18T12:44:28;52809.06;;;-146.31;50.72
2036;BME280;23642;42.658;23.350;2023-09-18T12:46:55;52871.00;;;-146.31;50.34
2036;BME280;23642;42.658;23.350;2023-09-18T12:49:30;52910.19;;;-146.31;50.49
2036;BME280;23642;42.658;23.350;2023-09-18T12:52:01;52881.31;;;-146.31;50.21
2036;BME280;23642;42.658;23.350;2023-09-18T12:54:47;52802.88;;;-146.31;49.86
2036;BME280;23642;42.658;23.350;2023-09-18T12:57:21;52796.69;;;-146.31;50.08
2036;BME280;23642;42.658;23.350;2023-09-18T12:59:49;52712.06;;;-146.31;49.36
2036;BME280;23642;42.658;23.350;2023-09-18T13:02:17;52757.47;;;-146.31;47.15
2036;BME280;23642;42.658;23.350;2023-09-18T13:04:51;52714.13;;;-146.31;47.92